If you wish to contribute or participate in the discussions about articles you are invited to join SKYbrary as a registered user

 Actions

Dole-Tavaux Airport

From SKYbrary Wiki

LFGJ
Airport
ICAO: LFGJ – IATA: DLE
Summary
Name Dole-Tavaux Airport
Region Europe
Territory France FR.gif
Location , Franche-Comte
Serving Dole
Elevation 196.596 m
645 ft
645 ft196.596 m
Type medium airport
Coordinates 47° 2' 20.45" N, 5° 25' 38.10" E
Runways
Designator Length Width Surface ROPS
5/23 2231 m7,319.554 ft
45 m147.638 ft
ASP yes/yes


METAR
Observation LFGJ 231300Z AUTO 23005KT 190V260 5000 BR SCT007 BKN130 15/13 Q1010 NOSIG
Station Dole Tavaux
Date/Time 23 October 2019 13:00:00
Wind direction 230°
Wind speed 05 kts
Lowest cloud amount scattered clouds
Temperature 15°C
Dew point 13°C
Humidity 87%
QNH 1010 hPa
Weather condition n/a